Decoded Metar for EGXC (CONINGSBY in ENGLAND) (IATA:QCY) | Meteo·Mobile Aviation Weather
aviador You're here:

EGXC Decoded Metar

CONINGSBY in ENGLAND
Report Time2018-11-17 01:50:00
UTC Time2018-11-17 02:30:09
Flight Rules ifr IFR
Wind110° at 08 kt
W.Decomp.*RWY 07: 6.0 kt HW 5.2 kt RCW
W.Rank110° ranks 24
Current wind is above 110° avg. (6.1)
Visibility9999 m
Phenomena:N/A
Clouds:Overcast 005 Hf
Expected CloudBase > 400 ft AGL from Temp-Dew spread
Ceiling500 ft
Temp09°C (ISA -6)
Dew Point08°C (94% RH)
AAT5.7°C
QNH1028 hPa
Density Alt-1,053 ft
Elevation23 ft
Report Wrong Elevation
Raw Report
EGXC 170150Z 11008KT 9999 OVC005 09/08 Q1028 YLO1=

Extra information for EGXC:More info

Metar Taf Metar & Taf Last 4 Metars F.Rules Stats Wind Profile Meteogram Temp Stats Airport Information Weather charts Add Link Nearby VenuesMetar ALERT Operation Metar Decoded Social comments